Terminal Aerodrome Forecast
Issued by NWS Wichita, KS

Home | Current Version | Previous Version | Text Only | Print | Product List | Glossary Off
Versions: 1 2 3 4 5 6 7 8 9 10 11 12 13 14 15 16 17 18 19 20 21 22

000
FTUS43 KICT 151637 AAB
TAFICT
TAF AMD
KICT 151637Z 1517/1612 06006KT 4SM -RADZ SCT005 OVC007
      TEMPO 1517/1521 2SM RA BR OVC005
     FM160200 06009KT 5SM RA VCTS SCT005 OVC007CB=

USA.gov is the U.S. government's official web portal to all federal, state and local government web resources and services.